Malatya/Erhac, Turkey
Current Conditions -  °F | °C
As of 5:50 PM on Wednesday 26 Nov 2014 (Local Time) from LTAT Reporting Station
Light Rain Light Rain  
Wind Chill: 43°   Ceiling: 3500
Heat Index: 43°   Visibility: 4mi
Dew Point: 41°   Wind: 3mph
Humidity: 93%   Direction: 320°NW
Pressure: 29.83"   Gusts: NA
Location:  38.43°N, 38.08°E
Report Text: LTAT 261450Z 32003KT 260V010 6000 -RA SCT012 BKN035 OVC090 06/05 Q1010 NOSIG
Loading
Personal Weather Stations






























Interactive Weather Map New forecast layout! Learn more

10-Day Weather Forecast

Advertisements
Track Severe Weather on mobile